createdAt,value
2023-01-11T00:02:16.841Z,3.17
2023-01-11T00:04:44.383Z,3.26
2023-01-11T00:07:11.883Z,3.35
2023-01-11T00:09:39.613Z,3.20
2023-01-11T00:12:08.718Z,3.26
2023-01-11T00:14:36.303Z,3.36
2023-01-11T00:17:03.823Z,3.51
2023-01-11T00:19:31.238Z,3.50
2023-01-11T00:21:58.686Z,3.29
2023-01-11T00:24:26.101Z,3.34
2023-01-11T00:26:53.575Z,3.44
2023-01-11T00:29:22.540Z,3.35
2023-01-11T00:31:49.928Z,3.46
2023-01-11T00:34:17.527Z,3.39
2023-01-11T00:36:44.978Z,3.31
2023-01-11T00:39:12.456Z,3.36
2023-01-11T00:41:57.624Z,3.45
2023-01-11T00:44:44.240Z,3.44
2023-01-11T00:47:32.655Z,3.45
2023-01-11T00:50:00.286Z,3.39
2023-01-11T00:52:28.111Z,3.33
2023-01-11T00:54:55.624Z,3.42
2023-01-11T00:57:23.145Z,3.41
2023-01-11T00:59:51.947Z,3.39
2023-01-11T01:02:19.652Z,3.40
2023-01-11T01:04:47.115Z,3.41
2023-01-11T01:07:14.601Z,3.45
2023-01-11T01:09:42.062Z,3.49
2023-01-11T01:12:10.041Z,3.20
2023-01-11T01:14:36.666Z,3.49
2023-01-11T01:17:07.637Z,3.53
2023-01-11T01:19:37.391Z,3.35
2023-01-11T01:22:05.025Z,3.36
2023-01-11T01:24:33.795Z,3.45
2023-01-11T01:27:01.663Z,3.50
2023-01-11T01:29:29.157Z,3.46
2023-01-11T01:31:56.601Z,3.46
2023-01-11T01:34:25.684Z,3.35
2023-01-11T01:36:53.153Z,3.59
2023-01-11T01:39:20.597Z,3.49
2023-01-11T01:41:48.131Z,3.35
2023-01-11T01:44:57.841Z,3.46
2023-01-11T01:47:30.667Z,3.46
2023-01-11T01:50:02.019Z,3.45
2023-01-11T01:52:29.811Z,3.68
2023-01-11T01:55:00.461Z,3.39
2023-01-11T01:57:31.929Z,3.56
2023-01-11T02:00:03.769Z,3.45
2023-01-11T02:02:31.332Z,3.41
2023-01-11T02:05:00.842Z,3.47
2023-01-11T02:07:32.629Z,3.47
2023-01-11T02:10:03.206Z,3.75
2023-01-11T02:12:33.505Z,3.49
2023-01-11T02:15:02.334Z,3.54
2023-01-11T02:17:29.797Z,3.44
2023-01-11T02:20:10.185Z,3.51
2023-01-11T02:23:07.180Z,3.46
2023-01-11T02:26:17.645Z,3.45
2023-01-11T02:28:54.980Z,3.36
2023-01-11T02:31:32.396Z,3.45
2023-01-11T02:34:11.661Z,3.68
2023-01-11T02:36:49.238Z,3.67
2023-01-11T02:39:24.724Z,3.67
2023-01-11T02:42:15.024Z,3.76
2023-01-11T02:45:02.982Z,3.60
2023-01-11T02:47:38.586Z,3.68
2023-01-11T02:50:14.259Z,3.55
2023-01-11T02:52:51.093Z,3.67
2023-01-11T02:55:24.600Z,3.42
2023-01-11T02:57:54.764Z,3.46
2023-01-11T03:00:25.198Z,3.44
2023-01-11T03:03:11.020Z,3.66
2023-01-11T03:05:44.861Z,3.41
2023-01-11T03:08:26.379Z,3.60
2023-01-11T03:11:03.751Z,3.44
2023-01-11T03:13:41.568Z,3.52
2023-01-11T03:16:25.408Z,3.46
2023-01-11T03:19:00.995Z,3.50
2023-01-11T03:21:42.895Z,3.55
2023-01-11T03:24:16.536Z,3.45
2023-01-11T03:27:03.950Z,3.51
2023-01-11T03:29:33.817Z,3.72
2023-01-11T03:32:14.105Z,3.50
2023-01-11T03:34:49.671Z,3.46
2023-01-11T03:37:23.725Z,3.55
2023-01-11T03:40:00.531Z,3.71
2023-01-11T03:42:29.904Z,3.56
2023-01-11T03:45:00.409Z,3.65
2023-01-11T03:47:32.917Z,3.81
2023-01-11T03:50:04.373Z,3.73
2023-01-11T03:52:35.355Z,3.62
2023-01-11T03:55:06.835Z,3.71
2023-01-11T03:57:38.522Z,3.58
2023-01-11T04:00:08.661Z,3.78
2023-01-11T04:02:41.014Z,3.64
2023-01-11T04:05:11.832Z,3.72
2023-01-11T04:07:39.534Z,3.67
2023-01-11T04:10:08.403Z,3.77
2023-01-11T04:12:35.868Z,3.74
2023-01-11T04:15:05.136Z,3.81
2023-01-11T04:17:32.929Z,3.76
2023-01-11T04:20:01.783Z,3.76
2023-01-11T04:22:29.239Z,3.77
2023-01-11T04:24:56.707Z,3.87
2023-01-11T04:27:24.204Z,3.90
2023-01-11T04:29:51.645Z,3.84
2023-01-11T04:32:19.170Z,3.89
2023-01-11T04:34:46.634Z,3.78
2023-01-11T04:37:15.457Z,3.84
2023-01-11T04:39:42.890Z,3.81
2023-01-11T04:42:18.557Z,3.81
2023-01-11T04:44:47.813Z,3.86
2023-01-11T04:47:16.118Z,3.84
2023-01-11T04:49:43.577Z,3.81
2023-01-11T04:52:12.593Z,3.91
2023-01-11T04:54:41.480Z,3.80
2023-01-11T04:57:13.004Z,3.82
2023-01-11T04:59:40.558Z,3.90
2023-01-11T05:02:07.993Z,3.96
2023-01-11T05:04:35.558Z,4.04
2023-01-11T05:07:03.157Z,3.93
2023-01-11T05:09:30.682Z,3.91
2023-01-11T05:11:59.473Z,3.95
2023-01-11T05:14:27.008Z,3.95
2023-01-11T05:16:54.550Z,3.93
2023-01-11T05:19:22.021Z,3.95
2023-01-11T05:21:49.497Z,3.99
2023-01-11T05:24:17.419Z,3.97
2023-01-11T05:26:46.053Z,3.95
2023-01-11T05:29:17.018Z,4.04
2023-01-11T05:31:44.727Z,4.07
2023-01-11T05:34:13.679Z,4.08
2023-01-11T05:36:42.063Z,4.11
2023-01-11T05:39:11.395Z,4.14
2023-01-11T05:41:38.871Z,4.15
2023-01-11T05:44:23.931Z,4.18
2023-01-11T05:46:52.801Z,4.19
2023-01-11T05:49:20.256Z,4.22
2023-01-11T05:51:47.679Z,4.22
2023-01-11T05:54:15.913Z,4.21
2023-01-11T05:56:43.522Z,4.26
2023-01-11T05:59:12.294Z,4.30
2023-01-11T06:01:40.180Z,4.30
2023-01-11T06:04:09.057Z,4.32
2023-01-11T06:06:36.878Z,4.38
2023-01-11T06:09:04.591Z,4.35
2023-01-11T06:11:33.288Z,4.35
2023-01-11T06:14:00.721Z,4.35
2023-01-11T06:16:28.296Z,4.42
2023-01-11T06:18:55.816Z,4.44
2023-01-11T06:21:25.090Z,4.40
2023-01-11T06:23:52.728Z,4.41
2023-01-11T06:26:22.625Z,4.43
2023-01-11T06:28:50.739Z,4.43
2023-01-11T06:31:18.683Z,4.46
2023-01-11T06:33:47.077Z,4.51
2023-01-11T06:36:15.857Z,4.52
2023-01-11T06:38:45.177Z,4.49
2023-01-11T06:41:13.953Z,4.56
2023-01-11T06:43:42.606Z,4.53
2023-01-11T06:46:14.754Z,4.57
2023-01-11T06:48:42.562Z,4.59
2023-01-11T06:51:10.946Z,4.61
2023-01-11T06:53:39.148Z,4.64
2023-01-11T06:56:09.164Z,4.66
2023-01-11T06:58:37.726Z,4.68
2023-01-11T07:01:07.003Z,4.68
2023-01-11T07:03:35.285Z,4.70
2023-01-11T07:06:04.332Z,4.69
2023-01-11T07:08:31.924Z,4.72
2023-01-11T07:10:59.436Z,4.71
2023-01-11T07:13:28.513Z,4.71
2023-01-11T07:15:58.224Z,4.75
2023-01-11T07:18:25.738Z,4.75
2023-01-11T07:20:53.267Z,4.73
2023-01-11T07:23:20.906Z,4.75
2023-01-11T07:25:49.336Z,4.79
2023-01-11T07:28:17.049Z,4.88
2023-01-11T07:30:57.441Z,4.82
2023-01-11T07:33:26.190Z,4.83
2023-01-11T07:35:53.762Z,4.83
2023-01-11T07:38:21.633Z,4.85
2023-01-11T07:40:49.100Z,4.89
2023-01-11T07:43:15.746Z,4.87
2023-01-11T07:45:47.860Z,4.91
2023-01-11T07:48:20.551Z,4.95
2023-01-11T07:50:54.838Z,4.96
2023-01-11T07:53:25.292Z,4.95
2023-01-11T07:55:52.752Z,4.99
2023-01-11T07:58:20.203Z,4.97
2023-01-11T08:00:48.986Z,4.99
2023-01-11T08:03:16.575Z,5.02
2023-01-11T08:05:44.094Z,5.01
2023-01-11T08:10:38.751Z,5.06
2023-01-11T08:13:31.164Z,5.09
2023-01-11T08:16:00.448Z,5.09
2023-01-11T08:18:27.961Z,5.20
2023-01-11T08:20:55.430Z,5.13
2023-01-11T08:23:22.870Z,5.29
2023-01-11T08:25:50.360Z,5.22
2023-01-11T08:28:17.868Z,5.19
2023-01-11T08:30:45.478Z,5.37
2023-01-11T08:33:14.333Z,5.35
2023-01-11T08:35:41.813Z,5.33
2023-01-11T08:38:09.281Z,5.31
2023-01-11T08:40:36.758Z,5.33
2023-01-11T08:43:04.300Z,5.42
2023-01-11T08:45:31.752Z,5.46
2023-01-11T08:48:00.493Z,5.46
2023-01-11T08:50:29.311Z,5.39
2023-01-11T08:52:56.798Z,5.51
2023-01-11T08:55:24.256Z,5.44
2023-01-11T08:57:51.756Z,5.48
2023-01-11T09:00:22.025Z,5.44
2023-01-11T09:02:49.515Z,5.43
2023-01-11T09:05:18.363Z,5.44
2023-01-11T09:07:47.441Z,5.49
2023-01-11T09:10:14.780Z,5.46
2023-01-11T09:12:42.084Z,5.50
2023-01-11T09:15:10.423Z,5.55
2023-01-11T09:17:37.852Z,5.57
2023-01-11T09:20:06.184Z,5.54
2023-01-11T09:22:33.759Z,5.58
2023-01-11T09:25:02.571Z,5.58
2023-01-11T09:27:30.046Z,5.62
2023-01-11T09:29:57.608Z,5.77
2023-01-11T09:32:25.217Z,5.88
2023-01-11T09:34:57.138Z,5.72
2023-01-11T09:37:24.686Z,5.81
2023-01-11T09:39:52.592Z,5.81
2023-01-11T09:42:35.271Z,5.91
2023-01-11T09:45:11.030Z,5.94
2023-01-11T09:47:42.117Z,6.03
2023-01-11T09:50:16.378Z,6.01
2023-01-11T09:52:47.297Z,6.07
2023-01-11T09:55:21.161Z,6.21
2023-01-11T09:58:00.687Z,6.06
2023-01-11T10:00:37.438Z,6.14
2023-01-11T10:03:30.059Z,6.38
2023-01-11T10:06:10.754Z,6.22
2023-01-11T10:18:33.078Z,6.27
2023-01-11T10:18:33.757Z,6.33
2023-01-11T10:20:47.671Z,6.46
2023-01-11T10:23:21.453Z,6.48
2023-01-11T10:25:51.576Z,6.51
2023-01-11T10:28:29.343Z,6.45
2023-01-11T10:31:11.776Z,6.50
2023-01-11T10:33:57.441Z,6.46
2023-01-11T10:36:51.583Z,6.44
2023-01-11T10:39:39.639Z,6.67
2023-01-11T10:42:12.501Z,6.50
2023-01-11T10:44:47.042Z,6.56
2023-01-11T10:47:19.215Z,6.82
2023-01-11T10:49:52.868Z,6.63
2023-01-11T10:52:36.896Z,6.68
2023-01-11T10:55:13.843Z,6.63
2023-01-11T10:57:59.367Z,6.81
2023-01-11T11:00:36.355Z,6.66
2023-01-11T11:03:40.432Z,6.70
2023-01-11T11:06:19.113Z,6.65
2023-01-11T11:08:55.019Z,6.82
2023-01-11T11:11:31.301Z,6.66
2023-01-11T11:14:04.839Z,6.58
2023-01-11T11:16:45.222Z,6.64
2023-01-11T11:19:20.687Z,6.62
2023-01-11T11:21:49.277Z,6.56
2023-01-11T11:24:23.513Z,6.54
2023-01-11T11:26:57.101Z,6.51
2023-01-11T11:29:30.518Z,6.53
2023-01-11T11:32:00.747Z,6.48
2023-01-11T11:34:30.828Z,6.47
2023-01-11T11:37:01.479Z,6.49
2023-01-11T11:39:31.153Z,6.49
2023-01-11T11:42:06.391Z,6.46
2023-01-11T11:44:34.294Z,6.46
2023-01-11T11:47:03.260Z,6.49
2023-01-11T11:49:33.962Z,6.45
2023-01-11T11:52:03.358Z,6.45
2023-01-11T11:54:33.013Z,6.46
2023-01-11T11:57:14.662Z,6.43
2023-01-11T11:59:47.272Z,6.52
2023-01-11T12:02:24.446Z,6.43
2023-01-11T12:04:54.494Z,6.47
2023-01-11T12:07:24.159Z,6.50
2023-01-11T12:09:59.595Z,6.45
2023-01-11T12:12:29.541Z,6.48
2023-01-11T12:15:18.126Z,6.49
2023-01-11T12:17:45.596Z,6.47
2023-01-11T12:20:35.684Z,6.50
2023-01-11T12:23:23.600Z,6.48
2023-01-11T12:26:15.965Z,6.51
2023-01-11T12:29:10.898Z,6.51
2023-01-11T12:31:50.489Z,6.53
2023-01-11T12:34:34.282Z,6.49
2023-01-11T12:37:10.426Z,6.56
2023-01-11T12:39:49.050Z,6.53
2023-01-11T12:42:48.308Z,6.50
2023-01-11T12:45:25.584Z,6.47
2023-01-11T12:48:16.082Z,6.48
2023-01-11T12:50:56.302Z,6.48
2023-01-11T12:53:46.147Z,6.51
2023-01-11T12:56:32.485Z,6.46
2023-01-11T12:59:03.577Z,6.49
2023-01-11T13:01:42.187Z,6.50
2023-01-11T13:04:24.477Z,6.45
2023-01-11T13:07:00.929Z,6.45
2023-01-11T13:09:43.238Z,6.50
2023-01-11T13:12:19.391Z,6.45
2023-01-11T13:15:01.449Z,6.49
2023-01-11T13:17:37.224Z,6.51
2023-01-11T13:20:26.550Z,6.51
2023-01-11T13:22:59.580Z,6.51
2023-01-11T13:25:30.833Z,6.57
2023-01-11T13:28:01.164Z,6.49
2023-01-11T13:30:29.579Z,6.49
2023-01-11T13:33:00.927Z,6.52
2023-01-11T13:35:37.277Z,6.53
2023-01-11T13:38:16.482Z,6.55
2023-01-11T13:40:49.659Z,6.60
2023-01-11T13:43:21.480Z,6.61
2023-01-11T13:45:53.527Z,6.61
2023-01-11T13:48:28.225Z,6.63
2023-01-11T13:51:04.469Z,6.65
2023-01-11T13:53:39.875Z,6.66
2023-01-11T13:56:21.359Z,6.64
2023-01-11T13:58:53.659Z,6.64
2023-01-11T14:01:31.591Z,6.68
2023-01-11T14:04:04.979Z,6.65
2023-01-11T14:06:44.634Z,6.69
2023-01-11T14:09:28.175Z,6.73
2023-01-11T14:12:04.443Z,6.64
2023-01-11T14:14:51.020Z,6.71
2023-01-11T14:17:36.326Z,6.72
2023-01-11T14:20:15.460Z,6.79
2023-01-11T14:22:53.735Z,6.82
2023-01-11T14:25:25.388Z,6.84
2023-01-11T14:28:06.667Z,6.90
2023-01-11T14:30:59.660Z,7.04
2023-01-11T14:34:05.946Z,6.94
2023-01-11T14:37:11.722Z,6.97
2023-01-11T14:40:05.004Z,6.97
2023-01-11T14:42:56.867Z,6.98
2023-01-11T14:45:45.664Z,7.09
2023-01-11T14:48:26.161Z,6.96
2023-01-11T14:51:23.952Z,6.96
2023-01-11T14:54:01.475Z,6.99
2023-01-11T14:56:48.762Z,7.03
2023-01-11T14:59:26.131Z,6.92
2023-01-11T15:02:18.293Z,6.99
2023-01-11T15:05:11.716Z,6.97
2023-01-11T15:07:41.958Z,6.95
2023-01-11T15:10:55.498Z,6.96
2023-01-11T15:13:26.135Z,6.94
2023-01-11T15:16:27.996Z,6.88
2023-01-11T15:18:57.183Z,6.98
2023-01-11T15:21:27.724Z,6.93
2023-01-11T15:23:57.738Z,6.98
2023-01-11T15:26:27.521Z,6.88
2023-01-11T15:28:57.042Z,6.89
2023-01-11T15:31:50.698Z,7.00
2023-01-11T15:34:25.636Z,6.95
2023-01-11T15:37:17.431Z,6.94
2023-01-11T15:39:51.217Z,6.94
2023-01-11T15:42:44.634Z,6.89
2023-01-11T15:45:58.946Z,7.01
2023-01-11T15:48:36.760Z,6.96
2023-01-11T15:51:30.149Z,6.91
2023-01-11T15:54:07.161Z,6.94
2023-01-11T15:56:53.409Z,6.95
2023-01-11T15:59:54.404Z,6.90
2023-01-11T16:03:07.406Z,6.90
2023-01-11T16:05:38.433Z,6.92
2023-01-11T16:08:23.802Z,6.95
2023-01-11T16:11:07.715Z,6.94
2023-01-11T16:13:49.053Z,6.97
2023-01-11T16:16:21.047Z,6.96
2023-01-11T16:18:54.058Z,6.96
2023-01-11T16:21:31.493Z,6.93
2023-01-11T16:24:00.839Z,7.01
2023-01-11T16:26:30.068Z,6.90
2023-01-11T16:28:59.246Z,7.03
2023-01-11T16:31:27.422Z,6.96
2023-01-11T16:33:57.071Z,6.91
2023-01-11T16:36:25.023Z,6.94
2023-01-11T16:39:01.570Z,6.93
2023-01-11T16:41:39.539Z,6.95
2023-01-11T16:44:09.835Z,6.89
2023-01-11T16:47:07.140Z,7.00
2023-01-11T16:49:35.440Z,6.90
2023-01-11T16:52:41.416Z,6.95
2023-01-11T16:55:22.060Z,6.89
2023-01-11T16:57:54.344Z,6.87
2023-01-11T17:00:32.184Z,6.88
2023-01-11T17:03:31.650Z,6.82
2023-01-11T17:06:04.231Z,6.78
2023-01-11T17:08:35.202Z,6.79
2023-01-11T17:11:06.871Z,6.88
2023-01-11T17:14:01.180Z,6.79
2023-01-11T17:16:30.926Z,6.74
2023-01-11T17:19:01.138Z,6.76
2023-01-11T17:21:30.396Z,6.74
2023-01-11T17:24:01.189Z,6.84
2023-01-11T17:26:31.571Z,6.86
2023-01-11T17:29:01.473Z,6.88
2023-01-11T17:31:31.926Z,6.83
2023-01-11T17:34:05.702Z,6.75
2023-01-11T17:36:33.938Z,6.79
2023-01-11T17:39:02.436Z,6.82
2023-01-11T17:41:48.922Z,6.75
2023-01-11T17:44:38.363Z,6.82
2023-01-11T17:47:08.386Z,6.78
2023-01-11T17:49:38.773Z,6.77
2023-01-11T17:52:21.081Z,6.75
2023-01-11T17:54:49.836Z,6.78
2023-01-11T17:57:18.753Z,6.76
2023-01-11T17:59:47.599Z,6.72
2023-01-11T18:02:15.217Z,6.73
2023-01-11T18:04:43.788Z,6.76
2023-01-11T18:07:17.777Z,6.78
2023-01-11T18:09:47.801Z,6.74
2023-01-11T18:12:18.836Z,6.68
2023-01-11T18:14:54.117Z,6.73
2023-01-11T18:17:31.740Z,6.75
2023-01-11T18:20:00.859Z,6.72
2023-01-11T18:22:30.653Z,6.70
2023-01-11T18:24:59.301Z,6.69
2023-01-11T18:27:31.781Z,6.61
2023-01-11T18:30:08.455Z,6.62
2023-01-11T18:32:41.744Z,6.57
2023-01-11T18:35:17.655Z,6.60
2023-01-11T18:37:46.044Z,6.51
2023-01-11T18:40:14.935Z,6.55
2023-01-11T18:42:43.326Z,6.62
2023-01-11T18:45:13.625Z,6.58
2023-01-11T18:47:41.133Z,6.55
2023-01-11T18:50:11.026Z,6.50
2023-01-11T18:52:40.636Z,6.56
2023-01-11T18:55:12.238Z,6.49
2023-01-11T18:57:39.794Z,6.54
2023-01-11T19:00:08.845Z,6.59
2023-01-11T19:02:42.745Z,6.52
2023-01-11T19:05:13.178Z,6.46
2023-01-11T19:07:43.866Z,6.46
2023-01-11T19:10:14.797Z,6.41
2023-01-11T19:12:43.273Z,6.40
2023-01-11T19:15:11.822Z,6.42
2023-01-11T19:17:43.583Z,6.46
2023-01-11T19:20:13.879Z,6.41
2023-01-11T19:22:41.894Z,6.41
2023-01-11T19:25:10.413Z,6.35
2023-01-11T19:27:40.797Z,6.41
2023-01-11T19:30:09.603Z,6.43
2023-01-11T19:32:44.253Z,6.43
2023-01-11T19:35:13.114Z,6.35
2023-01-11T19:37:43.385Z,6.35
2023-01-11T19:40:11.988Z,6.31
2023-01-11T19:42:41.357Z,6.31
2023-01-11T19:45:09.989Z,6.29
2023-01-11T19:47:37.628Z,6.31
2023-01-11T19:50:05.799Z,6.26
2023-01-11T19:52:34.757Z,6.23
2023-01-11T19:55:02.242Z,6.25
2023-01-11T19:57:29.969Z,6.24
2023-01-11T19:59:57.446Z,6.24
2023-01-11T20:02:24.952Z,6.23
2023-01-11T20:04:52.629Z,6.25
2023-01-11T20:07:20.285Z,6.26
2023-01-11T20:09:49.111Z,6.29
2023-01-11T20:12:16.475Z,6.25
2023-01-11T20:14:46.781Z,6.28
2023-01-11T20:17:15.690Z,6.21
2023-01-11T20:19:43.188Z,6.19
2023-01-11T20:22:10.692Z,6.23
2023-01-11T20:24:38.130Z,6.23
2023-01-11T20:27:07.016Z,6.20
2023-01-11T20:29:34.632Z,6.23
2023-01-11T20:32:24.594Z,6.20
2023-01-11T20:34:49.554Z,6.21
2023-01-11T20:37:17.072Z,6.20
2023-01-11T20:39:44.560Z,6.12
2023-01-11T20:42:13.422Z,6.20
2023-01-11T20:44:40.807Z,6.14
2023-01-11T20:47:08.284Z,6.19
2023-01-11T20:49:35.753Z,6.22
2023-01-11T20:52:03.591Z,6.22
2023-01-11T20:54:31.216Z,6.20
2023-01-11T20:57:02.043Z,6.28
2023-01-11T20:59:32.159Z,6.25
2023-01-11T21:01:59.724Z,6.23
2023-01-11T21:04:27.215Z,6.25
2023-01-11T21:06:54.696Z,6.20
2023-01-11T21:09:23.943Z,6.27
2023-01-11T21:11:53.907Z,6.33
2023-01-11T21:14:21.636Z,6.21
2023-01-11T21:16:50.510Z,6.21
2023-01-11T21:19:18.297Z,6.19
2023-01-11T21:21:45.964Z,6.09
2023-01-11T21:24:16.222Z,6.08
2023-01-11T21:26:45.623Z,5.94
2023-01-11T21:29:13.626Z,5.89
2023-01-11T21:31:42.431Z,5.90
2023-01-11T21:34:12.954Z,5.90
2023-01-11T21:36:44.160Z,5.96
2023-01-11T21:39:13.990Z,5.88
2023-01-11T21:41:55.563Z,5.79
2023-01-11T21:44:27.293Z,5.77
2023-01-11T21:46:54.960Z,5.79
2023-01-11T21:49:24.230Z,5.70
2023-01-11T21:51:52.689Z,5.72
2023-01-11T21:54:20.599Z,5.80
2023-01-11T21:56:49.302Z,5.74
2023-01-11T21:59:17.387Z,5.85
2023-01-11T22:01:46.857Z,5.84
2023-01-11T22:04:17.160Z,5.88
2023-01-11T22:06:51.004Z,5.80
2023-01-11T22:09:19.124Z,5.80
2023-01-11T22:11:46.900Z,5.75
2023-01-11T22:14:14.539Z,5.66
2023-01-11T22:16:42.219Z,5.64
2023-01-11T22:19:09.838Z,5.59
2023-01-11T22:21:38.445Z,5.73
2023-01-11T22:24:10.313Z,5.84
2023-01-11T22:26:38.859Z,5.48
2023-01-11T22:29:14.856Z,5.66
2023-01-11T22:31:45.165Z,5.51
2023-01-11T22:34:13.617Z,5.62
2023-01-11T22:36:41.455Z,5.63
2023-01-11T22:39:10.610Z,5.59
2023-01-11T22:41:39.953Z,5.70
2023-01-11T22:44:07.901Z,5.59
2023-01-11T22:46:35.794Z,5.61
2023-01-11T22:49:04.754Z,5.60
2023-01-11T22:51:32.392Z,5.55
2023-01-11T22:53:59.843Z,5.51
2023-01-11T22:56:29.381Z,5.55
2023-01-11T22:58:57.693Z,5.51
2023-01-11T23:01:27.111Z,5.44
2023-01-11T23:03:55.393Z,5.51
2023-01-11T23:06:25.478Z,5.45
2023-01-11T23:08:54.077Z,5.62
2023-01-11T23:11:37.121Z,5.55
2023-01-11T23:14:08.363Z,5.55
2023-01-11T23:16:36.648Z,5.49
2023-01-11T23:19:05.164Z,5.42
2023-01-11T23:21:32.883Z,5.45
2023-01-11T23:24:01.554Z,5.44
2023-01-11T23:26:29.321Z,5.53
2023-01-11T23:28:57.321Z,5.46
2023-01-11T23:31:27.927Z,5.63
2023-01-11T23:33:56.561Z,5.47
2023-01-11T23:36:27.371Z,5.48
2023-01-11T23:38:54.865Z,5.46
2023-01-11T23:41:40.713Z,5.62
2023-01-11T23:44:09.973Z,5.52
2023-01-11T23:46:57.714Z,5.61
2023-01-11T23:49:25.462Z,5.50
2023-01-11T23:51:53.581Z,5.59
2023-01-11T23:54:21.428Z,5.51
2023-01-11T23:56:49.110Z,5.51
2023-01-11T23:59:16.603Z,5.43
